Time;durP1;ratioP1;P1;durP2;ratioP2;P2;SDS_P1;SDS_P2;PMS_P1;PMS_P2;Temp;Humidity;BMP_temperature;BMP_pressure;BME280_temperature;BME280_humidity;BME280_pressure;Samples;Min_cycle;Max_cycle;Signal;HPM_P1;HPM_P2
2021/01/04 00:00:01;;;;;;;3.20;1.20;;;;;;;23.39;46.17;97857.59;5012891;28;20228;-62
2021/01/04 00:02:37;;;;;;;3.47;1.67;;;;;;;23.37;45.94;97859.59;5012776;28;20350;-62
2021/01/04 00:05:23;;;;;;;5.20;1.48;;;;;;;23.41;45.57;97865.41;5012812;28;20295;-62
2021/01/04 00:08:14;;;;;;;3.05;1.27;;;;;;;23.36;46.34;97857.13;5013299;28;20710;-62
2021/01/04 00:10:58;;;;;;;2.05;1.33;;;;;;;23.34;45.63;97853.81;5010176;28;20246;-62
2021/01/04 00:13:30;;;;;;;3.67;1.70;;;;;;;23.24;46.05;97849.53;5011621;28;20200;-62
2021/01/04 00:16:02;;;;;;;4.15;1.35;;;;;;;23.27;46.03;97849.19;5012469;28;20374;-62
2021/01/04 00:18:38;;;;;;;3.13;1.60;;;;;;;23.26;45.59;97852.88;5012315;28;20247;-62
2021/01/04 00:21:09;;;;;;;3.83;2.00;;;;;;;23.20;45.83;97845.59;5012001;28;20200;-62
2021/01/04 00:23:45;;;;;;;2.80;1.27;;;;;;;23.24;45.83;97846.88;5012502;28;20204;-62
2021/01/04 00:26:15;;;;;;;4.30;1.52;;;;;;;23.22;46.34;97850.75;5011735;28;20346;-63
2021/01/04 00:28:43;;;;;;;3.63;1.60;;;;;;;23.14;46.62;97846.28;5010929;28;20232;-62
2021/01/04 00:31:14;;;;;;;2.95;1.50;;;;;;;23.18;45.83;97844.94;5010528;28;20251;-63
2021/01/04 00:33:43;;;;;;;3.40;1.40;;;;;;;23.15;46.81;97847.97;5011391;28;20278;-63
2021/01/04 00:36:15;;;;;;;6.10;1.48;;;;;;;23.13;46.68;97851.81;5012336;28;20213;-63
2021/01/04 00:39:07;;;;;;;2.22;1.20;;;;;;;23.14;46.09;97851.63;5011093;28;20380;-63
2021/01/04 00:41:50;;;;;;;3.03;1.33;;;;;;;23.09;46.35;97854.00;5012007;28;20567;-64
2021/01/04 00:44:24;;;;;;;3.55;1.40;;;;;;;23.06;46.46;97851.66;5012451;28;20208;-64
2021/01/04 00:46:59;;;;;;;2.67;1.42;;;;;;;23.04;46.11;97851.03;5012071;28;20213;-64
2021/01/04 00:49:29;;;;;;;5.60;1.75;;;;;;;23.04;46.15;97851.84;5011345;28;20228;-61
2021/01/04 00:52:05;;;;;;;5.28;1.42;;;;;;;23.06;45.91;97849.00;5011312;28;20217;-64
2021/01/04 00:54:40;;;;;;;4.38;1.67;;;;;;;23.02;46.00;97848.53;5012557;28;20211;-61
2021/01/04 00:57:28;;;;;;;2.78;1.25;;;;;;;23.00;46.81;97852.38;5011463;28;20204;-64
2021/01/04 01:00:08;;;;;;;5.13;1.40;;;;;;;23.06;46.36;97862.31;5011047;28;20225;-62
2021/01/04 01:02:57;;;;;;;2.58;1.33;;;;;;;22.99;45.87;97858.72;5011621;28;20205;-62
2021/01/04 01:05:33;;;;;;;2.20;1.50;;;;;;;22.97;45.89;97855.41;5012190;28;20201;-62
2021/01/04 01:08:12;;;;;;;2.17;1.40;;;;;;;22.98;46.57;97859.72;5011752;28;20209;-62
2021/01/04 01:10:41;;;;;;;2.78;1.23;;;;;;;22.96;45.94;97857.22;5011496;28;20208;-62
2021/01/04 01:13:21;;;;;;;3.83;1.42;;;;;;;22.91;46.63;97855.13;5011934;28;20209;-64
2021/01/04 01:16:00;;;;;;;4.78;1.40;;;;;;;22.96;45.67;97859.06;5011187;28;20204;-63
2021/01/04 01:18:34;;;;;;;2.75;1.55;;;;;;;22.88;46.24;97855.47;5011700;28;20347;-61
2021/01/04 01:21:05;;;;;;;3.85;1.83;;;;;;;22.94;46.06;97859.25;5010604;28;20208;-62
2021/01/04 01:23:32;;;;;;;4.15;1.40;;;;;;;22.85;46.21;97855.81;5010984;28;20227;-64
2021/01/04 01:26:13;;;;;;;1.73;1.27;;;;;;;22.91;46.92;97856.94;5009594;28;20208;-62
2021/01/04 01:29:13;;;;;;;3.42;1.48;;;;;;;22.92;45.82;97856.75;5010299;28;20315;-64
2021/01/04 01:32:12;;;;;;;1.92;1.17;;;;;;;22.84;46.00;97859.47;5011422;28;20267;-62
2021/01/04 01:35:07;;;;;;;2.42;1.40;;;;;;;22.84;45.97;97862.13;4997996;28;20237;-62
2021/01/04 01:38:00;;;;;;;2.42;1.50;;;;;;;22.84;46.45;97869.31;5011571;28;20213;-62
2021/01/04 01:41:13;;;;;;;6.68;1.33;;;;;;;22.77;47.08;97861.19;5010395;28;20200;-62
2021/01/04 01:43:52;;;;;;;4.95;1.23;;;;;;;22.80;46.54;97858.19;4969458;28;20300;-64
2021/01/04 01:46:25;;;;;;;3.10;1.40;;;;;;;22.77;47.08;97868.38;5008694;28;20213;-62
2021/01/04 01:49:03;;;;;;;1.67;1.25;;;;;;;22.70;46.77;97871.72;5010789;28;20255;-61
2021/01/04 01:51:53;;;;;;;2.88;1.33;;;;;;;22.71;47.08;97870.72;5010843;28;20288;-64
2021/01/04 01:54:37;;;;;;;1.80;1.30;;;;;;;22.68;46.21;97870.25;5010762;28;20591;-62
2021/01/04 01:57:20;;;;;;;2.13;1.30;;;;;;;22.71;46.08;97867.22;5010647;28;20274;-64
2021/01/04 02:00:03;;;;;;;2.50;1.20;;;;;;;22.77;46.81;97861.19;5009997;28;20224;-62
2021/01/04 02:02:33;;;;;;;2.88;1.40;;;;;;;22.67;47.00;97864.09;5010555;28;20306;-62
2021/01/04 02:05:10;;;;;;;1.95;1.20;;;;;;;22.64;46.83;97871.59;5010256;28;20212;-62
2021/01/04 02:07:42;;;;;;;1.50;1.13;;;;;;;22.74;46.15;97869.53;5011289;28;20394;-61
2021/01/04 02:10:12;;;;;;;2.78;1.42;;;;;;;22.70;46.63;97874.41;5011157;28;20316;-61
2021/01/04 02:12:50;;;;;;;2.45;1.23;;;;;;;22.66;47.14;97872.25;5010253;28;20733;-63
2021/01/04 02:15:20;;;;;;;2.95;1.77;;;;;;;22.73;47.12;97867.88;5010534;28;20204;-61
2021/01/04 02:17:59;;;;;;;2.75;1.30;;;;;;;22.66;46.00;97872.25;5009874;28;20204;-63
2021/01/04 02:20:53;;;;;;;4.43;1.40;;;;;;;22.61;46.30;97863.97;5010331;28;20215;-64
2021/01/04 02:23:28;;;;;;;2.22;1.63;;;;;;;22.64;46.57;97866.28;5011213;28;20211;-64
2021/01/04 02:26:01;;;;;;;5.35;1.30;;;;;;;22.65;46.52;97863.44;5010548;28;20226;-63
2021/01/04 02:28:32;;;;;;;2.88;1.58;;;;;;;22.58;46.96;97862.47;5009377;28;20323;-63
2021/01/04 02:30:58;;;;;;;4.47;1.25;;;;;;;22.62;46.12;97863.78;5011366;28;20299;-64
2021/01/04 02:33:24;;;;;;;2.17;1.30;;;;;;;22.61;46.76;97859.44;5012336;28;20275;-64
2021/01/04 02:35:51;;;;;;;2.08;1.27;;;;;;;22.62;46.80;97855.78;5013097;28;20235;-63
2021/01/04 02:38:23;;;;;;;2.90;1.30;;;;;;;22.58;46.47;97869.63;5012830;28;20221;-64
2021/01/04 02:40:50;;;;;;;3.95;1.42;;;;;;;22.62;46.12;97860.31;5013486;28;20231;-64
2021/01/04 02:43:17;;;;;;;1.58;1.15;;;;;;;22.56;46.87;97855.66;5011862;28;20205;-62
2021/01/04 02:45:43;;;;;;;4.00;1.42;;;;;;;22.48;46.49;97860.03;5012373;28;20205;-62
2021/01/04 02:48:26;;;;;;;5.13;1.58;;;;;;;22.59;46.29;97861.47;5012595;28;20325;-61
2021/01/04 02:51:03;;;;;;;2.55;1.40;;;;;;;22.54;47.17;97861.97;5014133;28;20201;-62
2021/01/04 02:53:45;;;;;;;3.80;1.63;;;;;;;22.47;46.40;97860.22;5013752;28;20204;-62
2021/01/04 02:56:39;;;;;;;3.25;1.40;;;;;;;22.62;46.81;97865.63;5014047;28;20224;-62
2021/01/04 02:59:22;;;;;;;3.92;1.35;;;;;;;22.49;46.25;97864.34;5013542;28;20311;-62
2021/01/04 03:01:55;;;;;;;3.55;1.50;;;;;;;22.44;47.13;97863.22;5013370;28;20209;-62
2021/01/04 03:04:23;;;;;;;3.72;1.98;;;;;;;22.53;47.17;97873.66;5013430;28;20747;-62
2021/01/04 03:06:55;;;;;;;3.25;1.63;;;;;;;22.51;47.12;97869.50;5014239;28;20253;-62
2021/01/04 03:09:22;;;;;;;6.28;1.70;;;;;;;22.40;46.90;97867.22;5012692;28;20642;-62
2021/01/04 03:11:49;;;;;;;2.53;1.60;;;;;;;22.36;47.60;97869.41;5013520;28;20327;-62
2021/01/04 03:14:29;;;;;;;3.05;1.45;;;;;;;22.33;47.75;97867.94;5013532;28;20667;-62
2021/01/04 03:17:02;;;;;;;4.63;1.30;;;;;;;22.58;47.33;97880.28;5013718;28;20717;-63
2021/01/04 03:19:32;;;;;;;2.78;1.40;;;;;;;22.61;47.07;97874.63;5013468;28;20307;-62
2021/01/04 03:22:00;;;;;;;3.47;1.40;;;;;;;22.52;47.19;97869.31;5013613;28;20299;-62
2021/01/04 03:24:27;;;;;;;5.25;1.45;;;;;;;22.54;46.74;97872.63;5012501;28;20211;-62
2021/01/04 03:27:00;;;;;;;3.88;1.60;;;;;;;22.58;46.24;97869.63;5011914;28;20208;-63
2021/01/04 03:29:27;;;;;;;5.22;1.40;;;;;;;22.46;46.86;97866.53;5012520;28;20228;-63
2021/01/04 03:31:53;;;;;;;5.93;1.75;;;;;;;22.46;46.25;97867.34;5013233;28;20209;-63
2021/01/04 03:34:19;;;;;;;3.55;1.60;;;;;;;22.51;47.06;97862.34;5011637;28;20729;-61
2021/01/04 03:36:45;;;;;;;4.90;1.75;;;;;;;22.45;46.12;97860.38;5011661;28;20295;-62
2021/01/04 03:39:11;;;;;;;2.65;1.60;;;;;;;22.40;46.20;97856.56;5012044;28;20274;-60
2021/01/04 03:41:37;;;;;;;2.63;1.58;;;;;;;22.46;46.61;97862.03;5010104;28;20215;-62
2021/01/04 03:44:04;;;;;;;2.38;1.70;;;;;;;22.42;47.27;97859.91;5012596;28;20663;-61
2021/01/04 03:46:31;;;;;;;4.30;1.50;;;;;;;22.35;46.85;97859.78;5011174;28;20208;-61
2021/01/04 03:48:57;;;;;;;5.03;1.90;;;;;;;22.37;46.25;97863.09;5010676;28;20228;-62
2021/01/04 03:51:23;;;;;;;2.42;1.35;;;;;;;22.56;46.32;97872.47;5011464;28;20557;-62
2021/01/04 03:53:49;;;;;;;2.53;1.38;;;;;;;22.58;46.04;97865.13;5011861;28;20636;-62
2021/01/04 03:56:15;;;;;;;2.58;1.45;;;;;;;22.51;46.05;97865.00;5009831;28;20215;-62
2021/01/04 03:58:41;;;;;;;3.13;1.23;;;;;;;;;;5011889;28;20217;-62
2021/01/04 04:01:08;;;;;;;4.57;1.52;;;;;;;22.58;46.82;97872.28;5011711;28;20216;-61
2021/01/04 04:03:35;;;;;;;5.00;1.52;;;;;;;22.48;46.28;97870.69;5011122;28;20357;-62
2021/01/04 04:06:01;;;;;;;2.78;1.50;;;;;;;22.44;47.08;97872.03;5012145;28;20308;-62
2021/01/04 04:08:27;;;;;;;3.30;1.60;;;;;;;22.49;47.10;97863.53;5011266;28;20600;-62
2021/01/04 04:10:53;;;;;;;3.13;1.70;;;;;;;22.44;47.11;97864.03;5011438;28;20201;-62
2021/01/04 04:13:19;;;;;;;3.67;1.60;;;;;;;22.40;46.27;97876.06;5011827;28;20223;-62
2021/01/04 04:15:46;;;;;;;2.53;1.20;;;;;;;22.47;46.89;97869.03;5010709;28;20594;-62
2021/01/04 04:18:12;;;;;;;1.73;1.10;;;;;;;22.43;46.87;97867.72;5009674;28;20599;-62
2021/01/04 04:20:39;;;;;;;3.08;1.58;;;;;;;22.39;46.67;97866.41;5010874;28;20258;-62
2021/01/04 04:23:05;;;;;;;2.42;1.40;;;;;;;22.39;46.75;97871.72;5012178;28;20204;-62
2021/01/04 04:25:31;;;;;;;3.03;1.58;;;;;;;22.40;47.10;97860.09;5010592;28;20223;-62
2021/01/04 04:27:57;;;;;;;3.72;1.88;;;;;;;22.40;46.09;97867.22;5011067;28;20218;-61
2021/01/04 04:30:25;;;;;;;3.50;1.42;;;;;;;22.35;46.31;97867.75;5011952;28;20235;-62
2021/01/04 04:32:52;;;;;;;2.08;1.40;;;;;;;22.44;46.41;97874.69;5011585;28;20579;-62
2021/01/04 04:35:18;;;;;;;2.55;1.48;;;;;;;22.43;46.78;97872.19;5010854;28;20213;-62
2021/01/04 04:37:45;;;;;;;2.38;1.40;;;;;;;22.31;46.93;97869.09;5010605;28;20205;-62
2021/01/04 04:40:16;;;;;;;1.85;1.38;;;;;;;22.37;47.59;97873.75;5009677;28;20217;-60
2021/01/04 04:42:42;;;;;;;3.88;1.42;;;;;;;22.31;47.56;97869.09;5011109;28;20583;-70
2021/01/04 04:45:14;;;;;;;2.72;1.77;;;;;;;22.45;47.51;97870.19;5009410;28;20208;-62
2021/01/04 04:48:00;;;;;;;2.15;1.40;;;;;;;22.58;46.18;97869.63;5011268;28;20201;-62
2021/01/04 04:50:43;;;;;;;1.88;1.40;;;;;;;22.65;46.41;97875.91;5011545;28;20596;-62
2021/01/04 04:53:41;;;;;;;2.00;1.10;;;;;;;22.68;46.95;97873.75;5011079;28;20213;-62
2021/01/04 04:56:33;;;;;;;3.05;1.58;;;;;;;22.77;45.59;97877.19;4971048;28;20664;-62
2021/01/04 04:59:08;;;;;;;2.80;1.35;;;;;;;22.81;46.31;97875.00;5011489;28;20239;-62
2021/01/04 05:01:44;;;;;;;2.05;1.50;;;;;;;22.82;45.95;97877.50;5011430;28;20215;-62
2021/01/04 05:04:35;;;;;;;4.50;1.60;;;;;;;22.90;45.97;97879.28;5010926;28;20208;-62
2021/01/04 05:07:09;;;;;;;2.60;1.58;;;;;;;22.99;45.76;97872.06;5011621;28;20209;-62
2021/01/04 05:09:46;;;;;;;2.58;1.42;;;;;;;22.98;46.10;97873.03;5010994;28;20229;-62
2021/01/04 05:12:26;;;;;;;1.58;1.38;;;;;;;22.96;45.61;97878.56;5011966;28;20218;-62
2021/01/04 05:14:58;;;;;;;2.67;1.73;;;;;;;23.00;45.92;97881.69;5010915;28;20235;-62
2021/01/04 05:17:59;;;;;;;4.68;1.73;;;;;;;23.04;45.44;97878.50;5011682;28;20295;-62
2021/01/04 05:20:59;;;;;;;4.03;1.40;;;;;;;22.97;45.39;97882.06;5010874;28;20204;-62
2021/01/04 05:24:07;;;;;;;2.58;1.30;;;;;;;23.09;45.41;97878.81;5010697;28;20205;-62
2021/01/04 05:26:59;;;;;;;2.00;1.25;;;;;;;23.14;45.19;97874.81;4949435;29;20208;-62
2021/01/04 05:30:00;;;;;;;1.63;1.17;;;;;;;23.12;45.28;97882.16;5006903;28;20641;-62
2021/01/04 05:32:42;;;;;;;3.22;1.40;;;;;;;23.16;45.19;97884.28;5000297;28;20207;-63
2021/01/04 05:35:10;;;;;;;2.40;1.20;;;;;;;23.18;45.26;97876.94;5010846;28;20319;-63
2021/01/04 05:37:45;;;;;;;2.47;1.40;;;;;;;23.17;45.17;97879.78;5010800;28;20575;-62
2021/01/04 05:40:28;;;;;;;1.88;1.58;;;;;;;23.16;45.32;97878.94;5010850;28;20220;-62
2021/01/04 05:43:05;;;;;;;1.52;1.30;;;;;;;23.19;45.58;97875.91;5011072;28;20584;-62
2021/01/04 05:45:37;;;;;;;2.17;1.40;;;;;;;23.22;44.77;97883.56;5010880;28;20208;-62
2021/01/04 05:48:15;;;;;;;2.85;1.25;;;;;;;23.20;44.94;97880.25;5010850;28;20273;-62
2021/01/04 05:50:54;;;;;;;2.50;1.52;;;;;;;23.22;45.51;97874.75;5011373;28;20287;-62
2021/01/04 05:53:20;;;;;;;2.72;1.30;;;;;;;23.30;45.43;97879.16;5010501;28;20583;-62
2021/01/04 05:55:54;;;;;;;3.15;1.70;;;;;;;23.23;45.54;97879.91;5009747;28;20205;-61
2021/01/04 05:58:21;;;;;;;1.80;1.30;;;;;;;23.21;45.53;97881.06;5007718;28;20237;-62
2021/01/04 06:00:48;;;;;;;3.80;1.60;;;;;;;23.30;45.25;97884.50;5009985;28;20525;-61
2021/01/04 06:03:18;;;;;;;3.88;1.75;;;;;;;23.31;44.41;97886.16;5010927;28;20215;-62
2021/01/04 06:05:44;;;;;;;2.85;1.50;;;;;;;23.27;44.92;97886.53;5010275;28;20283;-62
2021/01/04 06:08:29;;;;;;;2.63;1.30;;;;;;;23.17;46.24;97874.44;5009735;28;20238;-62
2021/01/04 06:11:07;;;;;;;4.93;1.67;;;;;;;23.15;46.42;97876.44;5010475;28;20204;-62
2021/01/04 06:13:38;;;;;;;4.20;1.52;;;;;;;23.15;46.17;97876.44;5009754;28;20204;-62
2021/01/04 06:16:11;;;;;;;4.72;1.77;;;;;;;23.06;45.70;97875.66;5009466;28;20596;-62
2021/01/04 06:18:45;;;;;;;10.65;2.08;;;;;;;23.11;46.22;97875.97;5009085;28;20224;-62
2021/01/04 06:21:28;;;;;;;11.38;2.10;;;;;;;23.06;45.61;97867.66;5010285;28;20308;-70
2021/01/04 06:24:01;;;;;;;6.47;1.98;;;;;;;22.98;46.14;97870.38;5010908;28;20208;-71
2021/01/04 06:26:27;;;;;;;8.90;2.30;;;;;;;22.96;46.79;97877.72;5010419;28;20370;-70
2021/01/04 06:28:57;;;;;;;3.38;1.92;;;;;;;23.03;46.58;97878.66;5009600;28;20242;-67
2021/01/04 06:31:41;;;;;;;7.50;1.90;;;;;;;22.99;45.48;97878.19;5011332;28;20223;-68
2021/01/04 06:34:19;;;;;;;4.00;1.85;;;;;;;23.00;45.61;97873.69;5009370;28;20391;-68
2021/01/04 06:36:49;;;;;;;7.53;1.95;;;;;;;23.09;46.38;97886.81;5009994;28;20647;-69
2021/01/04 06:39:21;;;;;;;28.88;2.22;;;;;;;23.13;46.52;97887.28;5009585;28;20313;-68
2021/01/04 06:41:47;;;;;;;5.13;1.88;;;;;;;23.13;46.08;97891.81;5010386;28;20208;-69
2021/01/04 06:44:18;;;;;;;17.17;2.35;;;;;;;23.13;47.36;97879.28;5008428;28;20366;-69
2021/01/04 06:47:44;;;;;;;15.43;2.53;;;;;;;23.31;46.67;97878.16;5011477;28;20293;-69
2021/01/04 06:50:17;;;;;;;6.93;1.92;;;;;;;23.37;46.60;97886.28;5009930;28;20264;-69
2021/01/04 06:53:23;;;;;;;7.43;2.15;;;;;;;23.34;47.47;97883.16;5011163;28;20185;-69
2021/01/04 06:56:29;;;;;;;6.88;1.90;;;;;;;23.45;47.05;97886.22;5010888;28;20205;-69
2021/01/04 06:59:52;;;;;;;7.80;2.33;;;;;;;23.50;47.20;97885.69;5010795;28;20216;-70
2021/01/04 07:02:45;;;;;;;7.47;2.13;;;;;;;23.48;47.30;97887.66;5010592;28;20209;-70
2021/01/04 07:05:36;;;;;;;13.27;2.70;;;;;;;23.63;46.96;97880.56;5010230;28;20213;-69
2021/01/04 07:08:36;;;;;;;6.25;2.70;;;;;;;23.58;47.33;97877.59;5009445;28;20204;-67
2021/01/04 07:11:23;;;;;;;5.90;2.47;;;;;;;23.52;47.79;97878.31;5010319;28;20215;-69
2021/01/04 07:14:01;;;;;;;6.22;2.50;;;;;;;23.51;49.11;97883.81;5009982;28;20699;-70
2021/01/04 07:16:50;;;;;;;7.95;2.08;;;;;;;23.47;48.74;97886.03;5012761;28;20258;-70
2021/01/04 07:19:43;;;;;;;4.95;1.95;;;;;;;23.41;49.62;97884.06;5007078;28;20271;-70
2021/01/04 07:22:21;;;;;;;12.05;2.40;;;;;;;23.32;48.65;97883.31;5013284;28;20209;-71
2021/01/04 07:25:03;;;;;;;13.90;2.10;;;;;;;23.35;47.68;97887.44;5013402;28;20291;-70
2021/01/04 07:27:41;;;;;;;7.78;2.13;;;;;;;23.30;47.46;97884.50;5019045;28;20208;-71
2021/01/04 07:30:19;;;;;;;12.60;2.08;;;;;;;23.25;47.79;97893.88;5020194;28;20228;-72
2021/01/04 07:32:54;;;;;;;6.38;1.75;;;;;;;23.21;48.07;97889.91;5015326;28;20568;-72
2021/01/04 07:35:27;;;;;;;13.63;2.80;;;;;;;23.20;48.01;97890.91;5019754;28;20719;-72
2021/01/04 07:38:07;;;;;;;13.93;2.97;;;;;;;23.23;49.05;97893.25;5019474;28;20295;-74
2021/01/04 07:41:11;;;;;;;13.05;2.50;;;;;;;23.35;50.40;97903.47;5016389;28;20343;-73
2021/01/04 07:44:17;;;;;;;24.42;2.85;;;;;;;23.37;51.22;97901.47;4996982;28;20211;-72
2021/01/04 07:47:12;;;;;;;13.48;2.53;;;;;;;23.50;51.63;97895.50;5014224;28;20346;-75
2021/01/04 07:49:57;;;;;;;9.40;2.95;;;;;;;23.64;51.83;97894.72;5021351;28;20287;-73
2021/01/04 07:52:47;;;;;;;10.27;2.22;;;;;;;23.68;50.83;97900.50;5016011;28;20343;-71
2021/01/04 07:55:34;;;;;;;7.80;2.20;;;;;;;23.65;51.82;97894.53;5012980;28;20435;-73
2021/01/04 07:58:31;;;;;;;12.80;2.70;;;;;;;23.64;50.80;97903.53;5013337;28;20605;-71
2021/01/04 08:01:30;;;;;;;9.05;2.50;;;;;;;23.59;51.52;97895.25;5009590;28;20304;-71
2021/01/04 08:04:31;;;;;;;6.78;2.35;;;;;;;23.75;51.33;97893.47;5013694;28;20208;-67
2021/01/04 08:07:25;;;;;;;5.25;2.17;;;;;;;23.77;49.42;97891.44;5013097;28;20754;-71
2021/01/04 08:10:25;;;;;;;8.30;2.80;;;;;;;23.78;49.17;97901.06;5011936;28;20461;-68
2021/01/04 08:13:29;;;;;;;17.70;5.82;;;;;;;23.82;48.29;97910.44;5012555;28;20282;-68
2021/01/04 08:15:59;;;;;;;28.63;7.97;;;;;;;23.89;47.64;97911.34;4999388;28;20680;-68
2021/01/04 08:18:26;;;;;;;27.67;8.75;;;;;;;23.83;47.31;97906.72;5011468;28;20631;-68
2021/01/04 08:20:57;;;;;;;29.80;10.48;;;;;;;23.87;47.43;97909.88;5011210;28;20296;-66
2021/01/04 08:23:43;;;;;;;32.17;9.80;;;;;;;23.86;48.36;97906.38;5012981;28;20283;-71
2021/01/04 08:26:41;;;;;;;31.50;10.88;;;;;;;23.87;48.22;97913.38;5012243;28;20304;-71
2021/01/04 08:29:13;;;;;;;25.77;8.02;;;;;;;23.89;47.67;97908.69;4998809;28;20355;-73
2021/01/04 08:31:45;;;;;;;25.00;8.65;;;;;;;23.95;47.42;97910.63;5011700;28;20299;-73
2021/01/04 08:34:19;;;;;;;29.98;8.70;;;;;;;23.98;47.03;97914.75;5012915;28;20239;-70
2021/01/04 08:36:55;;;;;;;28.50;8.45;;;;;;;23.91;47.97;97919.16;5012333;28;20200;-73
2021/01/04 08:39:35;;;;;;;23.08;7.20;;;;;;;23.92;47.43;97912.84;5012471;28;20307;-72
2021/01/04 08:42:22;;;;;;;24.42;8.43;;;;;;;23.82;47.85;97913.91;5012638;28;20235;-73
2021/01/04 08:44:58;;;;;;;20.05;7.35;;;;;;;23.79;48.24;97908.09;5016103;28;20208;-73
2021/01/04 08:47:31;;;;;;;33.15;8.65;;;;;;;23.79;47.42;97911.56;5017040;28;20204;-72
2021/01/04 08:50:10;;;;;;;31.30;7.30;;;;;;;23.70;47.80;97918.00;5014346;28;20595;-71
2021/01/04 08:52:42;;;;;;;25.02;6.63;;;;;;;23.57;48.67;97925.81;5014900;28;20216;-72
2021/01/04 08:55:09;;;;;;;35.78;7.55;;;;;;;23.67;48.76;97920.22;5011063;28;20209;-72
2021/01/04 08:57:43;;;;;;;52.25;14.65;;;;;;;23.65;48.73;97928.41;5011250;28;20201;-71
2021/01/04 09:00:18;;;;;;;23.48;8.23;;;;;;;23.51;48.33;97927.34;5012764;28;20304;-70
2021/01/04 09:02:45;;;;;;;50.80;15.48;;;;;;;23.53;47.79;97922.66;5011956;28;20207;-71
2021/01/04 09:05:13;;;;;;;48.47;15.75;;;;;;;23.48;47.94;97930.34;5011627;28;20209;-70
2021/01/04 09:07:48;;;;;;;62.42;19.88;;;;;;;23.39;48.18;97924.25;5012067;28;20239;-71
2021/01/04 09:10:22;;;;;;;79.70;23.60;;;;;;;23.36;47.92;97926.47;5010975;28;20239;-70
2021/01/04 09:12:52;;;;;;;77.10;23.38;;;;;;;23.31;49.60;97927.00;5011444;28;20208;-72
2021/01/04 09:15:32;;;;;;;63.15;18.45;;;;;;;23.26;49.90;97922.22;5013115;28;20208;-73
2021/01/04 09:18:33;;;;;;;52.83;16.98;;;;;;;23.16;48.23;97920.78;5012609;28;20664;-73
2021/01/04 09:21:02;;;;;;;51.17;18.08;;;;;;;23.10;46.62;97927.66;5012331;28;20243;-73
2021/01/04 09:23:32;;;;;;;63.08;17.77;;;;;;;23.00;43.91;97924.34;5011196;28;20204;-71
2021/01/04 09:26:13;;;;;;;39.65;14.80;;;;;;;22.95;44.39;97929.38;5011124;28;20284;-71
2021/01/04 09:28:43;;;;;;;37.47;12.90;;;;;;;23.05;44.04;97924.66;5011525;28;20232;-72
2021/01/04 09:31:14;;;;;;;47.80;14.18;;;;;;;23.01;44.39;97932.16;5011683;28;20680;-72
2021/01/04 09:33:45;;;;;;;37.28;13.38;;;;;;;22.90;44.79;97935.25;5010655;28;20233;-73
2021/01/04 09:36:11;;;;;;;40.50;12.45;;;;;;;23.09;44.16;97934.00;5011197;28;20212;-70
2021/01/04 09:38:38;;;;;;;29.15;11.55;;;;;;;23.09;44.01;97920.66;5010046;28;20227;-73
2021/01/04 09:41:08;;;;;;;31.20;10.40;;;;;;;23.00;45.42;97927.00;5010987;28;20672;-70
2021/01/04 09:43:37;;;;;;;33.60;10.13;;;;;;;22.92;44.91;97919.91;5012070;28;20243;-70
2021/01/04 09:46:23;;;;;;;34.92;10.60;;;;;;;22.95;43.25;97916.03;5010348;28;20201;-71
2021/01/04 09:48:57;;;;;;;33.83;10.27;;;;;;;22.87;43.55;97917.75;5011361;28;20601;-67
2021/01/04 09:51:32;;;;;;;32.67;12.27;;;;;;;22.72;42.33;97911.53;5011370;28;20287;-70
2021/01/04 09:54:03;;;;;;;22.33;10.77;;;;;;;22.73;41.10;97916.69;5012008;28;20303;-70
2021/01/04 09:56:32;;;;;;;38.03;10.18;;;;;;;22.91;42.89;97908.44;5011971;28;20224;-69
2021/01/04 09:59:09;;;;;;;32.75;9.52;;;;;;;22.94;43.44;97907.22;5010780;28;20232;-69
2021/01/04 10:01:46;;;;;;;24.23;9.45;;;;;;;22.94;43.58;97901.91;5009400;28;20235;-71
2021/01/04 10:04:12;;;;;;;19.13;7.68;;;;;;;22.84;43.86;97903.97;5011910;28;20370;-70
2021/01/04 10:06:40;;;;;;;21.38;8.57;;;;;;;22.85;44.24;97894.97;5009704;28;20201;-69
2021/01/04 10:09:14;;;;;;;22.60;7.53;;;;;;;22.79;44.10;97898.34;5012334;28;20228;-70
2021/01/04 10:11:40;;;;;;;28.63;7.50;;;;;;;22.90;43.72;97898.75;5016276;28;20263;-70
2021/01/04 10:14:08;;;;;;;18.35;7.43;;;;;;;23.00;44.28;97889.69;5008723;28;20232;-70
2021/01/04 10:16:38;;;;;;;23.02;7.68;;;;;;;23.05;43.67;97887.34;5011756;28;20270;-69
2021/01/04 10:19:11;;;;;;;22.27;6.70;;;;;;;23.18;44.98;97882.28;5011227;28;20225;-70
2021/01/04 10:21:46;;;;;;;23.20;7.35;;;;;;;23.18;45.08;97886.75;5012104;28;20208;-70
2021/01/04 10:24:20;;;;;;;19.85;7.05;;;;;;;23.09;44.46;97888.66;5010674;28;20208;-71
2021/01/04 10:26:49;;;;;;;16.02;6.57;;;;;;;23.11;44.94;97889.31;5011065;28;20208;-71
2021/01/04 10:29:19;;;;;;;16.88;6.18;;;;;;;23.16;44.69;97889.59;5010486;28;20228;-71
2021/01/04 10:31:45;;;;;;;18.92;6.80;;;;;;;23.31;44.93;97897.66;5010708;28;20214;-71
2021/01/04 10:34:15;;;;;;;15.52;6.10;;;;;;;23.38;44.40;97895.09;5010196;28;20203;-70
2021/01/04 10:36:50;;;;;;;13.55;5.68;;;;;;;23.49;45.09;97892.00;5011073;28;20204;-66
2021/01/04 10:39:19;;;;;;;17.52;5.97;;;;;;;23.54;44.75;97891.47;5011453;28;20310;-69
2021/01/04 10:41:46;;;;;;;14.93;5.97;;;;;;;23.53;44.94;97888.00;5010160;28;20243;-70
2021/01/04 10:44:15;;;;;;;22.02;5.85;;;;;;;23.45;44.19;97891.53;5009321;28;20267;-70
2021/01/04 10:46:54;;;;;;;19.67;5.28;;;;;;;23.58;43.63;97904.28;5009373;28;20254;-70
2021/01/04 10:49:27;;;;;;;17.25;5.82;;;;;;;23.60;43.66;97894.25;5010493;28;20369;-69
2021/01/04 10:51:54;;;;;;;17.13;5.47;;;;;;;23.63;43.57;97896.56;5012859;28;20675;-71
2021/01/04 10:54:33;;;;;;;18.42;5.72;;;;;;;23.62;44.53;97886.06;5014655;28;20209;-69
2021/01/04 10:57:05;;;;;;;11.90;4.78;;;;;;;23.59;45.01;97884.56;5015183;28;20204;-69
2021/01/04 10:59:37;;;;;;;13.68;4.72;;;;;;;23.67;43.84;97880.19;5013967;28;20742;-67
2021/01/04 11:02:04;;;;;;;11.00;4.32;;;;;;;23.74;44.30;97883.78;5013856;28;20216;-69
2021/01/04 11:04:32;;;;;;;15.90;4.70;;;;;;;23.73;44.00;97874.97;5013649;28;20334;-70
2021/01/04 11:07:20;;;;;;;12.07;4.90;;;;;;;23.73;43.90;97877.63;5015702;28;20232;-68
2021/01/04 11:09:48;;;;;;;14.55;4.97;;;;;;;23.70;44.19;97874.47;5015769;28;20588;-67
2021/01/04 11:12:17;;;;;;;11.68;4.97;;;;;;;23.63;45.34;97880.56;5014380;28;20545;-69
2021/01/04 11:14:59;;;;;;;15.00;4.53;;;;;;;23.61;45.36;97863.06;5016539;28;20228;-71
2021/01/04 11:17:29;;;;;;;10.90;4.50;;;;;;;23.71;45.00;97862.78;5013184;28;20212;-70
2021/01/04 11:20:06;;;;;;;10.68;4.22;;;;;;;23.68;45.40;97865.81;5014559;28;20247;-69
2021/01/04 11:22:32;;;;;;;13.13;4.20;;;;;;;23.72;45.26;97867.94;5012963;28;20719;-69
2021/01/04 11:25:00;;;;;;;8.02;4.32;;;;;;;23.81;44.36;97866.00;5013212;28;20660;-70
2021/01/04 11:27:26;;;;;;;9.45;4.13;;;;;;;23.88;44.37;97871.47;5012908;28;20209;-70
2021/01/04 11:29:53;;;;;;;11.60;4.43;;;;;;;23.87;44.53;97865.31;5012656;28;20233;-70
2021/01/04 11:32:21;;;;;;;17.17;4.75;;;;;;;23.84;44.32;97860.34;5012640;28;20208;-69
2021/01/04 11:34:49;;;;;;;11.43;5.00;;;;;;;23.81;44.79;97855.34;5013477;28;20607;-65
2021/01/04 11:37:18;;;;;;;11.13;4.70;;;;;;;23.83;44.78;97854.19;5013044;28;20680;-69
2021/01/04 11:39:44;;;;;;;10.75;4.10;;;;;;;23.93;45.10;97853.91;5014055;28;20244;-69
2021/01/04 11:42:10;;;;;;;10.52;4.43;;;;;;;23.94;44.36;97844.88;5014242;28;20572;-68
2021/01/04 11:44:37;;;;;;;10.55;4.18;;;;;;;23.88;44.91;97842.97;5012441;28;20295;-70
2021/01/04 11:47:04;;;;;;;9.00;4.05;;;;;;;23.89;45.05;97843.78;5012796;28;20200;-69
2021/01/04 11:49:30;;;;;;;12.52;3.42;;;;;;;23.98;44.11;97843.50;5012856;28;20723;-71
2021/01/04 11:51:57;;;;;;;10.40;3.60;;;;;;;24.00;44.53;97851.34;5012632;28;20204;-71
2021/01/04 11:54:24;;;;;;;12.00;3.45;;;;;;;23.92;44.54;97844.25;5012010;28;20204;-70
2021/01/04 11:56:51;;;;;;;9.10;4.18;;;;;;;23.77;44.16;97838.03;5012242;28;20587;-71
2021/01/04 11:59:18;;;;;;;9.00;3.80;;;;;;;23.72;44.11;97837.78;5012222;28;20224;-71
2021/01/04 12:01:44;;;;;;;8.20;3.90;;;;;;;23.87;44.51;97835.97;5012590;28;20216;-71
2021/01/04 12:04:11;;;;;;;7.35;3.58;;;;;;;23.86;44.36;97830.81;5011220;28;20239;-71
2021/01/04 12:06:37;;;;;;;19.02;3.65;;;;;;;23.79;43.96;97826.16;5011961;28;20605;-71
2021/01/04 12:09:04;;;;;;;6.75;3.60;;;;;;;23.67;45.23;97826.81;5011347;28;20279;-70